Terminal Aerodrome Forecast
Issued by NWS

Home | Current Version | Previous Version | Text Only | Print | Product List | Glossary On
Versions: 1 2 3 4 5 6 7 8 9 10 11 12 13 14 15
217
FTUS46 KEKA 231741
TAFCEC
TAF
KCEC 231741Z 2318/2418 18010KT 6SM HZ SKC
     FM232000 17011KT P6SM FEW005
     FM240300 16007KT 6SM BR SCT005
     FM240500 VRB03KT 2SM BR SCT003 OVC005
     FM240800 VRB03KT 3/4SM BR OVC003=

USA.gov is the U.S. government's official web portal to all federal, state and local government web resources and services.